Time;durP1;ratioP1;P1;durP2;ratioP2;P2;SDS_P1;SDS_P2;PMS_P1;PMS_P2;Temp;Humidity;BMP_temperature;BMP_pressure;BME280_temperature;BME280_humidity;BME280_pressure;Samples;Min_cycle;Max_cycle;Signal;HPM_P1;HPM_P2
2023/03/10 00:01:24;;;;;;;19.83;14.50;;;;;;;0.92;100.00;99243.84;5015032;28;20053;-78
2023/03/10 00:03:54;;;;;;;19.35;13.73;;;;;;;0.90;100.00;99227.41;5052208;28;20052;-78
2023/03/10 00:06:26;;;;;;;16.50;12.63;;;;;;;0.89;100.00;99219.59;5018903;28;20049;-78
2023/03/10 00:08:54;;;;;;;15.73;11.70;;;;;;;0.86;100.00;99220.44;5033990;28;20151;-78
2023/03/10 00:11:22;;;;;;;14.63;10.90;;;;;;;0.82;100.00;99210.00;5015090;28;20063;-78
2023/03/10 00:13:49;;;;;;;18.75;13.13;;;;;;;0.81;100.00;99200.47;5028184;28;20033;-78
2023/03/10 00:16:25;;;;;;;15.55;11.30;;;;;;;0.80;100.00;99199.59;4990606;28;20052;-78
2023/03/10 00:18:53;;;;;;;17.77;12.27;;;;;;;0.80;100.00;99206.50;5052205;28;20041;-78
2023/03/10 00:21:23;;;;;;;18.38;12.27;;;;;;;0.81;100.00;99187.50;5032750;28;20052;-78
2023/03/10 00:23:51;;;;;;;16.25;11.93;;;;;;;0.80;100.00;99178.84;5018601;28;20045;-78
2023/03/10 00:26:20;;;;;;;18.08;13.02;;;;;;;0.80;100.00;99175.38;5030964;28;20049;-78
2023/03/10 00:28:48;;;;;;;17.45;12.23;;;;;;;0.77;100.00;99174.47;5028154;28;20060;-78
2023/03/10 00:31:18;;;;;;;18.27;13.10;;;;;;;0.77;100.00;99156.31;5008749;28;20068;-78
2023/03/10 00:33:45;;;;;;;18.02;13.77;;;;;;;0.77;100.00;99152.84;5034584;28;20041;-78
2023/03/10 00:36:13;;;;;;;18.67;12.82;;;;;;;0.76;100.00;99154.59;5016596;28;20052;-78
2023/03/10 00:38:42;;;;;;;17.45;11.88;;;;;;;0.74;100.00;99158.03;5053143;28;20041;-78
2023/03/10 00:41:14;;;;;;;17.20;12.40;;;;;;;0.71;100.00;99155.38;5033846;28;20056;-78
2023/03/10 00:43:42;;;;;;;16.77;12.35;;;;;;;0.70;100.00;99140.66;5024374;28;20422;-78
2023/03/10 00:46:10;;;;;;;17.13;11.85;;;;;;;0.70;100.00;99138.94;4959666;28;20048;-78
2023/03/10 00:48:38;;;;;;;16.25;11.73;;;;;;;0.71;100.00;99130.31;5051047;28;20881;-78
2023/03/10 00:51:06;;;;;;;19.55;12.30;;;;;;;0.70;100.00;99128.56;5017656;28;20049;-78
2023/03/10 00:53:35;;;;;;;19.20;11.13;;;;;;;0.68;100.00;99129.38;5050652;28;20045;-78
2023/03/10 00:56:06;;;;;;;17.35;11.68;;;;;;;0.66;100.00;99120.72;5034967;28;20040;-78
2023/03/10 00:58:34;;;;;;;19.15;12.30;;;;;;;0.66;100.00;99126.78;5033645;28;20048;-78
2023/03/10 01:01:03;;;;;;;16.75;12.10;;;;;;;0.66;100.00;99115.53;5011072;28;20049;-78
2023/03/10 01:03:34;;;;;;;17.92;11.60;;;;;;;0.65;100.00;99106.88;4988492;28;20163;-78
2023/03/10 01:06:02;;;;;;;;;;;;;;;0.63;100.00;99103.41;5016521;28;20038;-78
2023/03/10 01:08:29;;;;;;;15.45;11.18;;;;;;;0.61;100.00;99115.47;5013983;28;19921;-78
2023/03/10 01:10:56;;;;;;;16.48;11.55;;;;;;;0.59;100.00;99119.75;5014839;28;20058;-78
2023/03/10 01:13:23;;;;;;;17.02;12.05;;;;;;;0.58;100.00;99105.91;4987416;28;23330;-77
2023/03/10 01:15:51;;;;;;;17.17;11.50;;;;;;;0.60;100.00;99110.25;5032165;28;20397;-78
2023/03/10 01:18:20;;;;;;;19.05;12.13;;;;;;;0.58;100.00;99100.72;4985249;28;20053;-78
2023/03/10 01:20:47;;;;;;;15.70;11.18;;;;;;;0.57;100.00;99098.13;5013953;28;20494;-78
2023/03/10 01:23:21;;;;;;;13.00;9.70;;;;;;;0.55;100.00;99095.50;5012769;28;20061;-78
2023/03/10 01:25:49;;;;;;;16.92;11.93;;;;;;;0.55;100.00;99087.72;5015266;28;20049;-78
2023/03/10 01:28:19;;;;;;;19.35;12.98;;;;;;;0.55;100.00;99092.91;5028560;28;20044;-78
2023/03/10 01:30:47;;;;;;;21.92;14.73;;;;;;;0.56;100.00;99089.47;4989393;28;20053;-78
2023/03/10 01:33:16;;;;;;;19.67;13.57;;;;;;;0.56;100.00;99092.06;4964008;28;20502;-78
2023/03/10 01:35:44;;;;;;;21.60;13.82;;;;;;;0.58;100.00;99084.31;5031221;28;20041;-78
2023/03/10 01:38:12;;;;;;;20.63;13.88;;;;;;;0.57;100.00;99085.16;5013196;28;20060;-78
2023/03/10 01:40:40;;;;;;;20.33;13.88;;;;;;;0.54;100.00;99080.78;5031577;28;20041;-78
2023/03/10 01:43:19;;;;;;;20.73;12.95;;;;;;;0.53;100.00;99072.97;5015420;28;20730;-78
2023/03/10 01:45:47;;;;;;;14.15;9.77;;;;;;;0.52;100.00;99066.06;5003315;28;20470;-78
2023/03/10 01:48:18;;;;;;;22.48;15.07;;;;;;;0.51;100.00;99072.09;4972643;28;20396;-78
2023/03/10 01:50:54;;;;;;;16.90;11.70;;;;;;;0.51;100.00;99075.59;4996831;28;20053;-78
2023/03/10 01:53:24;;;;;;;18.55;13.45;;;;;;;0.51;100.00;99070.41;5011873;28;20054;-78
2023/03/10 01:55:57;;;;;;;20.17;13.65;;;;;;;0.53;100.00;99081.66;5015040;28;20052;-78
2023/03/10 01:58:31;;;;;;;16.73;10.50;;;;;;;0.53;100.00;99066.09;5021454;28;20045;-78
2023/03/10 02:00:59;;;;;;;20.60;13.85;;;;;;;0.53;100.00;99063.50;5032723;28;20052;-78
2023/03/10 02:03:33;;;;;;;17.77;13.32;;;;;;;0.52;100.00;99068.66;5003028;28;20060;-78
2023/03/10 02:06:07;;;;;;;20.50;13.43;;;;;;;0.52;100.00;99064.34;5016172;28;20061;-78
2023/03/10 02:08:42;;;;;;;16.67;12.45;;;;;;;0.52;100.00;99051.38;5033270;28;20041;-78
2023/03/10 02:11:13;;;;;;;21.00;14.68;;;;;;;0.53;100.00;99057.44;5048455;28;20045;-78
2023/03/10 02:13:42;;;;;;;20.50;14.60;;;;;;;0.56;100.00;99049.72;5028444;28;20052;-79
2023/03/10 02:16:10;;;;;;;19.70;14.18;;;;;;;0.57;100.00;99061.84;4999642;28;20310;-79
2023/03/10 02:18:40;;;;;;;23.05;13.77;;;;;;;0.57;100.00;99057.53;4997962;28;20045;-79
2023/03/10 02:21:27;;;;;;;18.83;13.05;;;;;;;0.58;100.00;99058.38;4979738;28;20477;-77
2023/03/10 02:24:10;;;;;;;19.13;13.40;;;;;;;0.58;100.00;99041.09;5043735;28;20048;-77
2023/03/10 02:26:49;;;;;;;20.17;14.18;;;;;;;0.61;100.00;99039.44;5026320;28;20045;-79
2023/03/10 02:29:37;;;;;;;20.35;14.95;;;;;;;0.62;100.00;99047.19;5024569;28;20041;-77
2023/03/10 02:32:24;;;;;;;25.70;16.45;;;;;;;0.63;100.00;99046.38;5026646;28;20063;-77
2023/03/10 02:34:51;;;;;;;22.25;15.82;;;;;;;0.62;100.00;99043.75;5025099;28;20044;-77
2023/03/10 02:37:29;;;;;;;23.17;16.35;;;;;;;0.61;100.00;99026.47;4997301;28;20056;-77
2023/03/10 02:39:57;;;;;;;29.73;18.92;;;;;;;0.62;100.00;99047.19;5041910;28;20061;-79
2023/03/10 02:42:34;;;;;;;25.77;17.95;;;;;;;0.62;100.00;99035.97;5023004;28;20056;-77
2023/03/10 02:45:03;;;;;;;26.77;16.58;;;;;;;0.62;100.00;99029.06;5043734;28;20053;-79
2023/03/10 02:47:31;;;;;;;25.35;16.75;;;;;;;0.60;100.00;99037.66;5000312;28;20064;-79
2023/03/10 02:49:59;;;;;;;25.13;17.15;;;;;;;0.62;100.00;99028.19;5030962;28;20064;-79
2023/03/10 02:52:43;;;;;;;23.13;16.67;;;;;;;0.61;100.00;99031.66;4976290;28;20041;-79
2023/03/10 02:55:15;;;;;;;26.27;17.92;;;;;;;0.62;100.00;99023.00;5041076;28;20053;-77
2023/03/10 02:57:43;;;;;;;25.30;17.33;;;;;;;0.63;100.00;99019.59;5024393;28;20042;-79
2023/03/10 03:00:12;;;;;;;25.38;16.88;;;;;;;0.62;100.00;99023.00;4993352;28;20056;-78
2023/03/10 03:02:40;;;;;;;27.55;17.42;;;;;;;0.62;100.00;99023.88;4995102;28;20049;-79
2023/03/10 03:05:07;;;;;;;26.52;16.58;;;;;;;0.64;100.00;99024.75;4978144;28;20060;-78
2023/03/10 03:07:35;;;;;;;22.88;16.20;;;;;;;0.66;100.00;99022.19;4995752;28;20053;-79
2023/03/10 03:10:03;;;;;;;23.33;16.60;;;;;;;0.64;100.00;99022.16;5027282;28;20775;-79
2023/03/10 03:12:31;;;;;;;22.27;15.35;;;;;;;0.64;100.00;99016.97;4996929;28;20514;-78
2023/03/10 03:14:58;;;;;;;22.77;16.35;;;;;;;0.63;100.00;99012.66;5003164;28;20060;-78
2023/03/10 03:17:26;;;;;;;24.77;16.42;;;;;;;0.65;100.00;99016.16;5015282;28;20719;-78
2023/03/10 03:19:54;;;;;;;22.35;15.07;;;;;;;0.66;100.00;99015.31;4996290;28;20049;-78
2023/03/10 03:22:22;;;;;;;24.50;16.55;;;;;;;0.66;100.00;99004.03;4975020;28;20050;-79
2023/03/10 03:24:49;;;;;;;25.05;17.27;;;;;;;0.65;100.00;99005.78;5018518;28;20060;-78
2023/03/10 03:27:17;;;;;;;20.95;15.45;;;;;;;0.65;100.00;99010.09;5014265;28;20056;-78
2023/03/10 03:29:44;;;;;;;25.92;17.70;;;;;;;0.65;100.00;98999.72;5031434;28;20052;-78
2023/03/10 03:32:12;;;;;;;24.95;15.52;;;;;;;0.65;100.00;99003.19;5016287;28;20056;-78
2023/03/10 03:34:40;;;;;;;23.13;16.25;;;;;;;0.65;100.00;99007.50;4973590;28;20412;-78
2023/03/10 03:37:08;;;;;;;24.70;17.10;;;;;;;0.65;100.00;99007.50;4954421;28;20050;-78
2023/03/10 03:39:39;;;;;;;22.40;16.02;;;;;;;0.66;100.00;99007.53;5005633;28;20083;-78
2023/03/10 03:42:08;;;;;;;24.60;17.60;;;;;;;0.65;100.00;98997.16;4998227;28;20061;-78
2023/03/10 03:44:43;;;;;;;25.23;16.08;;;;;;;0.64;100.00;99006.63;5002684;28;20037;-78
2023/03/10 03:47:11;;;;;;;24.60;16.85;;;;;;;0.64;100.00;99004.03;5014830;28;20049;-78
2023/03/10 03:49:39;;;;;;;25.23;16.80;;;;;;;0.63;100.00;98997.13;5030882;28;20045;-78
2023/03/10 03:52:06;;;;;;;24.73;17.27;;;;;;;0.63;100.00;99001.44;4946976;28;20068;-78
2023/03/10 03:54:34;;;;;;;23.38;15.80;;;;;;;0.64;100.00;98998.84;5014571;28;20453;-78
2023/03/10 03:57:02;;;;;;;24.02;16.48;;;;;;;0.63;100.00;98999.72;4998441;28;20053;-78
2023/03/10 03:59:29;;;;;;;27.50;17.83;;;;;;;0.63;100.00;99004.88;5017684;28;20068;-78
2023/03/10 04:01:57;;;;;;;27.85;18.20;;;;;;;0.61;100.00;98998.81;5036543;28;20045;-78
2023/03/10 04:04:25;;;;;;;27.52;17.38;;;;;;;0.62;100.00;98991.91;5016943;28;20065;-78
2023/03/10 04:06:54;;;;;;;36.05;20.50;;;;;;;0.61;100.00;98987.59;5040060;28;20513;-78
2023/03/10 04:09:22;;;;;;;33.53;20.58;;;;;;;0.62;100.00;99000.53;4989749;28;20051;-78
2023/03/10 04:11:50;;;;;;;31.90;20.35;;;;;;;0.61;100.00;98993.63;5037001;28;20060;-78
2023/03/10 04:14:19;;;;;;;36.97;22.60;;;;;;;0.61;100.00;98997.97;5034133;28;20045;-78
2023/03/10 04:16:47;;;;;;;41.35;24.63;;;;;;;0.59;100.00;98987.56;5037820;28;20049;-78
2023/03/10 04:19:14;;;;;;;40.53;24.95;;;;;;;0.60;100.00;99002.25;5032351;28;20055;-78
2023/03/10 04:21:45;;;;;;;45.35;26.88;;;;;;;0.61;100.00;98997.97;5026561;28;20052;-78
2023/03/10 04:24:13;;;;;;;46.08;27.90;;;;;;;0.60;100.00;99007.44;5006638;28;20057;-78
2023/03/10 04:26:41;;;;;;;45.05;25.95;;;;;;;0.59;100.00;98990.16;5018578;28;20045;-78
2023/03/10 04:29:09;;;;;;;48.17;26.05;;;;;;;0.60;100.00;98993.59;5034331;28;20051;-78
2023/03/10 04:31:39;;;;;;;51.55;27.92;;;;;;;0.61;100.00;98993.63;5034628;28;20056;-78
2023/03/10 04:34:09;;;;;;;47.50;26.98;;;;;;;0.62;100.00;98997.94;5034401;28;20056;-78
2023/03/10 04:36:37;;;;;;;45.60;26.48;;;;;;;0.61;100.00;98985.84;5010683;28;20059;-78
2023/03/10 04:39:05;;;;;;;51.72;30.15;;;;;;;0.62;100.00;98994.50;4996024;28;20041;-78
2023/03/10 04:41:33;;;;;;;48.60;28.10;;;;;;;0.62;100.00;99000.53;5033580;28;20053;-78
2023/03/10 04:44:02;;;;;;;47.83;28.58;;;;;;;0.61;100.00;98998.81;5036528;28;20463;-78
2023/03/10 04:46:31;;;;;;;45.90;28.77;;;;;;;0.60;100.00;98997.06;5032279;28;20049;-78
2023/03/10 04:48:59;;;;;;;47.92;28.98;;;;;;;0.62;100.00;99000.53;5035459;28;20132;-78
2023/03/10 04:51:27;;;;;;;43.28;26.38;;;;;;;0.61;100.00;98990.19;5024565;28;20066;-78
2023/03/10 04:53:56;;;;;;;44.10;26.15;;;;;;;0.63;100.00;99002.31;4993570;28;20045;-78
2023/03/10 04:56:28;;;;;;;39.35;23.00;;;;;;;0.62;100.00;98999.69;5017354;28;20056;-78
2023/03/10 04:58:56;;;;;;;37.92;24.65;;;;;;;0.62;100.00;98997.09;5026476;28;20045;-78
2023/03/10 05:01:24;;;;;;;40.97;24.08;;;;;;;0.62;100.00;98990.16;4983609;28;20050;-77
2023/03/10 05:04:02;;;;;;;37.65;22.98;;;;;;;0.63;100.00;98989.34;5006061;28;20053;-78
2023/03/10 05:06:31;;;;;;;36.17;22.75;;;;;;;0.65;100.00;98986.78;5009906;28;20703;-78
2023/03/10 05:09:19;;;;;;;33.00;21.27;;;;;;;0.66;100.00;98998.88;4965487;28;20065;-77
2023/03/10 05:11:47;;;;;;;34.80;22.27;;;;;;;0.66;100.00;98998.88;5009836;28;20046;-78
2023/03/10 05:14:18;;;;;;;30.77;20.27;;;;;;;0.64;100.00;98991.06;5026029;28;20049;-78
2023/03/10 05:16:47;;;;;;;33.88;20.20;;;;;;;0.64;100.00;98987.59;4990721;28;20056;-78
2023/03/10 05:19:16;;;;;;;30.30;18.63;;;;;;;0.64;100.00;98995.38;5013813;28;20053;-78
2023/03/10 05:21:43;;;;;;;27.08;18.70;;;;;;;0.63;100.00;98988.47;5011652;28;20049;-78
2023/03/10 05:24:11;;;;;;;28.77;18.10;;;;;;;0.62;100.00;98985.00;4989063;28;20049;-78
2023/03/10 05:26:38;;;;;;;26.55;18.10;;;;;;;0.62;100.00;98984.13;4972840;28;20052;-78
2023/03/10 05:29:06;;;;;;;24.27;14.48;;;;;;;0.60;100.00;98986.69;4997911;28;20041;-78
2023/03/10 05:31:54;;;;;;;26.52;17.52;;;;;;;0.56;100.00;98988.38;5028454;28;20080;-78
2023/03/10 05:34:29;;;;;;;27.33;17.35;;;;;;;0.58;100.00;98991.00;5013897;28;20053;-78
2023/03/10 05:36:59;;;;;;;24.42;16.05;;;;;;;0.57;100.00;99000.50;4996522;28;20054;-78
2023/03/10 05:39:27;;;;;;;25.33;16.10;;;;;;;0.55;100.00;98997.00;4998190;28;20056;-78
2023/03/10 05:41:57;;;;;;;24.70;15.82;;;;;;;0.52;100.00;98998.69;4986562;28;20052;-78
2023/03/10 05:44:28;;;;;;;26.35;15.82;;;;;;;0.48;100.00;99000.38;5015273;28;20057;-78
2023/03/10 05:46:55;;;;;;;26.73;17.05;;;;;;;0.46;100.00;99006.38;5010312;28;20056;-78
2023/03/10 05:49:23;;;;;;;22.25;16.00;;;;;;;0.44;100.00;99006.34;4963553;28;20033;-78
2023/03/10 05:51:51;;;;;;;25.92;16.73;;;;;;;0.42;100.00;99007.16;4993951;28;20041;-78
2023/03/10 05:54:22;;;;;;;24.55;15.68;;;;;;;0.38;100.00;99009.72;5017478;28;20068;-78
2023/03/10 05:56:50;;;;;;;24.58;13.45;;;;;;;0.35;100.00;99003.63;4953038;28;20069;-78
2023/03/10 05:59:20;;;;;;;;;;;;;;;0.34;100.00;99007.94;5051854;28;20053;-78
2023/03/10 06:01:51;;;;;;;23.42;15.43;;;;;;;0.33;100.00;99000.16;5027744;28;19929;-78
2023/03/10 06:04:18;;;;;;;27.40;15.45;;;;;;;0.33;100.00;99005.34;5017677;28;20056;-78
2023/03/10 06:06:46;;;;;;;24.38;14.82;;;;;;;0.30;100.00;99019.13;5038399;28;20049;-78
2023/03/10 06:09:13;;;;;;;24.67;15.10;;;;;;;0.28;100.00;99013.00;5037098;28;20045;-78
2023/03/10 06:11:40;;;;;;;25.85;15.75;;;;;;;0.26;100.00;99029.41;4986334;28;20490;-77
2023/03/10 06:14:08;;;;;;;24.98;15.00;;;;;;;0.23;100.00;99024.16;5031110;28;20053;-78
2023/03/10 06:16:35;;;;;;;29.85;16.65;;;;;;;0.21;100.00;99024.16;5012774;28;20056;-78
2023/03/10 06:19:03;;;;;;;27.13;16.05;;;;;;;0.17;100.00;99014.56;5046918;28;20053;-78
2023/03/10 06:21:30;;;;;;;25.30;15.85;;;;;;;0.16;100.00;99018.88;5046981;28;20084;-78
2023/03/10 06:23:59;;;;;;;27.13;16.35;;;;;;;0.15;100.00;99027.53;5049595;28;20061;-78
2023/03/10 06:26:27;;;;;;;28.63;16.80;;;;;;;0.14;100.00;99018.00;5038352;28;20505;-78
2023/03/10 06:28:54;;;;;;;27.35;16.67;;;;;;;0.14;100.00;99022.31;5034595;28;20056;-78
2023/03/10 06:31:26;;;;;;;29.40;17.70;;;;;;;0.14;100.00;99019.72;5046023;28;20060;-78
2023/03/10 06:33:55;;;;;;;33.90;18.08;;;;;;;0.12;100.00;99019.69;5063137;28;20060;-78
2023/03/10 06:36:26;;;;;;;33.08;20.00;;;;;;;0.14;100.00;99015.41;5030953;28;20050;-78
2023/03/10 06:38:55;;;;;;;31.80;18.08;;;;;;;0.14;100.00;99019.72;5038075;28;20057;-78
2023/03/10 06:41:23;;;;;;;35.40;20.10;;;;;;;0.11;100.00;99017.06;5019892;28;20045;-78
2023/03/10 06:43:50;;;;;;;36.40;20.02;;;;;;;0.11;100.00;99019.66;5023090;28;20041;-77
2023/03/10 06:46:18;;;;;;;37.42;21.30;;;;;;;0.09;100.00;99011.00;4998301;28;20465;-77
2023/03/10 06:48:45;;;;;;;39.50;22.08;;;;;;;0.07;100.00;99013.56;5025323;28;20041;-78
2023/03/10 06:51:16;;;;;;;42.10;22.95;;;;;;;0.05;100.00;99020.44;5027383;28;20409;-78
2023/03/10 06:53:43;;;;;;;41.28;23.77;;;;;;;0.02;100.00;99014.34;5051753;28;20053;-79
2023/03/10 06:56:13;;;;;;;38.67;22.48;;;;;;;-0.02;100.00;99019.47;5034473;28;20052;-78
2023/03/10 06:58:42;;;;;;;36.97;19.45;;;;;;;-0.08;100.00;99009.00;4994625;28;20061;-78
2023/03/10 07:01:19;;;;;;;41.60;23.27;;;;;;;-0.11;100.00;99002.94;5032095;28;20053;-79
2023/03/10 07:03:47;;;;;;;41.85;21.98;;;;;;;-0.13;100.00;99000.31;5039212;28;20069;-79
2023/03/10 07:06:14;;;;;;;41.25;22.50;;;;;;;-0.16;100.00;99013.19;4995065;28;20057;-77
2023/03/10 07:08:41;;;;;;;41.55;21.75;;;;;;;-0.17;100.00;99010.56;5030528;28;20041;-77
2023/03/10 07:11:09;;;;;;;38.38;19.20;;;;;;;-0.20;100.00;99019.16;4983395;28;20059;-78
2023/03/10 07:13:37;;;;;;;39.88;22.33;;;;;;;-0.20;100.00;99019.16;4941591;28;20053;-78
2023/03/10 07:16:07;;;;;;;43.80;20.95;;;;;;;-0.21;100.00;99027.75;5025788;28;20050;-78
2023/03/10 07:18:34;;;;;;;39.70;22.00;;;;;;;-0.25;100.00;99016.47;5015337;28;21520;-77
2023/03/10 07:21:10;;;;;;;41.83;21.42;;;;;;;-0.26;100.00;99014.75;4998508;28;20057;-77
2023/03/10 07:23:38;;;;;;;34.28;18.10;;;;;;;-0.28;100.00;99020.78;5036764;28;20053;-77
2023/03/10 07:26:09;;;;;;;34.97;19.08;;;;;;;-0.29;100.00;99021.59;5033285;28;20033;-77
2023/03/10 07:28:36;;;;;;;42.85;20.88;;;;;;;-0.31;100.00;99023.28;4973409;28;20042;-77
2023/03/10 07:31:06;;;;;;;42.72;22.20;;;;;;;-0.32;100.00;99025.00;5014510;28;20045;-77
2023/03/10 07:33:34;;;;;;;42.33;23.95;;;;;;;-0.29;100.00;99039.72;5024390;28;20509;-78
2023/03/10 07:36:09;;;;;;;46.88;23.75;;;;;;;-0.31;100.00;99046.59;5036329;28;20359;-78
2023/03/10 07:38:37;;;;;;;44.75;22.40;;;;;;;-0.32;100.00;99045.72;5015266;28;20046;-77
2023/03/10 07:41:07;;;;;;;38.78;18.58;;;;;;;-0.31;100.00;99049.16;5013453;28;20044;-78
2023/03/10 07:43:34;;;;;;;39.60;21.15;;;;;;;-0.31;100.00;99056.94;4964651;28;20049;-78
2023/03/10 07:46:06;;;;;;;44.70;22.33;;;;;;;-0.30;100.00;99063.84;5013003;28;20057;-79
2023/03/10 07:48:34;;;;;;;40.67;22.40;;;;;;;-0.30;100.00;99064.72;4984508;28;20469;-78
2023/03/10 07:51:01;;;;;;;39.55;23.65;;;;;;;-0.28;100.00;99072.53;5017680;28;20045;-79
2023/03/10 07:53:32;;;;;;;46.03;22.57;;;;;;;-0.28;100.00;99077.72;5014063;28;20140;-78
2023/03/10 07:56:03;;;;;;;42.08;22.50;;;;;;;-0.29;100.00;99070.78;5018497;28;20302;-78
2023/03/10 07:58:33;;;;;;;44.70;23.80;;;;;;;-0.30;100.00;99062.16;5004225;28;20049;-78
2023/03/10 08:01:03;;;;;;;46.90;24.50;;;;;;;-0.29;100.00;99055.25;4984801;28;20482;-78
2023/03/10 08:03:32;;;;;;;41.28;20.65;;;;;;;-0.26;100.00;99056.19;5042758;28;20593;-78
2023/03/10 08:06:01;;;;;;;41.33;22.43;;;;;;;-0.27;100.00;99053.56;5025505;28;21089;-78
2023/03/10 08:08:28;;;;;;;42.90;23.00;;;;;;;-0.24;100.00;99067.44;5020028;28;20061;-78
2023/03/10 08:11:15;;;;;;;40.10;20.23;;;;;;;-0.24;100.00;99070.00;5033736;28;20041;-78
2023/03/10 08:13:44;;;;;;;47.45;23.98;;;;;;;-0.22;100.00;99057.09;5039341;28;20041;-78
2023/03/10 08:16:17;;;;;;;44.05;22.90;;;;;;;-0.19;100.00;99064.91;4973580;28;20072;-77
2023/03/10 08:18:45;;;;;;;33.10;17.15;;;;;;;-0.19;100.00;99062.31;5022866;28;20052;-78
2023/03/10 08:21:12;;;;;;;44.35;21.85;;;;;;;-0.18;100.00;99071.84;5049669;28;20043;-78
2023/03/10 08:23:40;;;;;;;40.90;22.17;;;;;;;-0.16;100.00;99077.06;5002613;28;20040;-77
2023/03/10 08:26:11;;;;;;;35.38;20.95;;;;;;;-0.14;100.00;99089.16;5031573;28;20057;-78
2023/03/10 08:28:40;;;;;;;42.45;23.48;;;;;;;-0.12;100.00;99097.84;5034264;28;20056;-78
2023/03/10 08:31:13;;;;;;;40.85;23.15;;;;;;;-0.12;100.00;99105.59;4986525;28;20061;-77
2023/03/10 08:33:42;;;;;;;40.92;22.10;;;;;;;-0.12;100.00;99110.78;5031479;28;20049;-78
2023/03/10 08:36:18;;;;;;;40.15;21.75;;;;;;;-0.11;100.00;99119.44;5038646;28;20617;-78
2023/03/10 08:38:46;;;;;;;48.42;23.52;;;;;;;-0.09;100.00;99123.78;5045156;28;20048;-78
2023/03/10 08:41:23;;;;;;;38.15;19.75;;;;;;;-0.11;100.00;99124.63;5031042;28;20062;-78
2023/03/10 08:43:52;;;;;;;40.55;21.67;;;;;;;-0.09;100.00;99118.63;5028850;28;20049;-78
2023/03/10 08:46:23;;;;;;;37.38;20.30;;;;;;;-0.05;100.00;99116.97;4997342;28;20057;-77
2023/03/10 08:48:50;;;;;;;40.13;21.67;;;;;;;-0.03;100.00;99112.69;5022201;28;20052;-78
2023/03/10 08:51:20;;;;;;;32.83;18.70;;;;;;;-0.03;100.00;99110.94;5043129;28;20075;-77
2023/03/10 08:53:49;;;;;;;39.53;20.75;;;;;;;-0.03;100.00;99113.53;5044733;28;20101;-78
2023/03/10 08:56:19;;;;;;;30.30;18.80;;;;;;;0.03;100.00;99119.69;5047219;28;20049;-78
2023/03/10 08:58:47;;;;;;;38.15;19.77;;;;;;;0.05;100.00;99111.09;5035104;28;20060;-78
2023/03/10 09:01:16;;;;;;;32.75;19.92;;;;;;;0.06;100.00;99112.84;5003584;28;20395;-77
2023/03/10 09:03:44;;;;;;;33.47;19.15;;;;;;;0.05;100.00;99098.13;4961184;28;20057;-78
2023/03/10 09:06:12;;;;;;;30.48;19.15;;;;;;;0.08;100.00;99108.56;5012690;28;20068;-78
2023/03/10 09:08:40;;;;;;;36.03;20.70;;;;;;;0.11;100.00;99100.81;5027554;28;20053;-78
2023/03/10 09:11:13;;;;;;;37.88;21.75;;;;;;;0.14;100.00;99092.25;5025226;28;20056;-77
2023/03/10 09:13:40;;;;;;;30.77;17.58;;;;;;;0.19;100.00;99088.91;5024409;28;20087;-78
2023/03/10 09:16:12;;;;;;;35.28;20.33;;;;;;;0.21;100.00;99103.56;5030215;28;20049;-77
2023/03/10 09:18:40;;;;;;;36.50;21.10;;;;;;;0.22;100.00;99101.00;4981240;28;20069;-78
2023/03/10 09:21:09;;;;;;;27.42;17.08;;;;;;;0.22;100.00;99111.38;5015552;28;20490;-78
2023/03/10 09:23:40;;;;;;;33.47;19.05;;;;;;;0.24;100.00;99114.00;4997517;28;20076;-78
2023/03/10 09:26:07;;;;;;;32.50;19.30;;;;;;;0.28;100.00;99106.28;4992724;28;20053;-78
2023/03/10 09:28:35;;;;;;;35.13;21.58;;;;;;;0.25;100.00;99106.25;5009108;28;20050;-77
2023/03/10 09:31:04;;;;;;;33.28;19.33;;;;;;;0.26;100.00;99107.13;5014282;28;20522;-77
2023/03/10 09:33:32;;;;;;;33.63;19.45;;;;;;;0.24;100.00;99119.19;5010275;28;20064;-78
2023/03/10 09:36:01;;;;;;;32.58;18.80;;;;;;;0.23;100.00;99117.41;4991634;28;20041;-78
2023/03/10 09:38:35;;;;;;;31.55;19.40;;;;;;;0.24;100.00;99129.53;5037991;28;20075;-78
2023/03/10 09:41:34;;;;;;;30.58;19.42;;;;;;;0.27;100.00;99132.19;5016637;28;20537;-78
2023/03/10 09:44:25;;;;;;;28.17;17.15;;;;;;;0.22;100.00;99147.63;4996806;28;20069;-78
2023/03/10 09:47:24;;;;;;;28.55;17.20;;;;;;;0.22;100.00;99170.09;5018211;28;20041;-77
2023/03/10 09:50:07;;;;;;;25.90;16.65;;;;;;;0.22;100.00;99162.31;4905133;28;20078;-78
2023/03/10 09:52:46;;;;;;;26.95;16.55;;;;;;;0.21;100.00;99166.63;5018974;28;20061;-78
2023/03/10 09:55:16;;;;;;;26.88;16.60;;;;;;;0.21;100.00;99155.38;5005876;28;20049;-78
2023/03/10 09:57:47;;;;;;;29.25;18.85;;;;;;;0.24;100.00;99156.31;4989082;28;20045;-79
2023/03/10 10:00:21;;;;;;;31.42;17.60;;;;;;;0.26;100.00;99139.06;5051853;28;20045;-78
2023/03/10 10:02:55;;;;;;;31.63;19.08;;;;;;;0.28;100.00;99142.56;5058452;28;20068;-77
2023/03/10 10:05:25;;;;;;;32.42;19.33;;;;;;;0.32;100.00;99148.66;4999536;28;20041;-78
2023/03/10 10:07:56;;;;;;;27.85;18.00;;;;;;;0.37;100.00;99154.81;5049038;28;20052;-79
2023/03/10 10:10:30;;;;;;;30.13;17.75;;;;;;;0.42;100.00;99157.47;5032204;28;20055;-79
2023/03/10 10:13:04;;;;;;;33.92;18.35;;;;;;;0.46;100.00;99152.38;5042394;28;20439;-77
2023/03/10 10:15:36;;;;;;;27.38;17.30;;;;;;;0.45;100.00;99160.13;5065579;28;20055;-78
2023/03/10 10:18:07;;;;;;;27.10;16.63;;;;;;;0.44;100.00;99174.81;5046948;28;20627;-78
2023/03/10 10:20:50;;;;;;;25.05;14.98;;;;;;;0.39;100.00;99185.06;5015834;28;20071;-79
2023/03/10 10:23:36;;;;;;;27.63;17.13;;;;;;;0.38;100.00;99175.56;5056304;28;20049;-78
2023/03/10 10:26:22;;;;;;;27.45;16.67;;;;;;;0.37;100.00;99172.94;5046620;28;20056;-77
2023/03/10 10:29:00;;;;;;;31.17;17.15;;;;;;;0.39;100.00;99171.25;5025998;28;20053;-77
2023/03/10 10:31:30;;;;;;;30.05;17.95;;;;;;;0.40;100.00;99162.66;5031080;28;20414;-77
2023/03/10 10:34:02;;;;;;;26.40;16.65;;;;;;;0.42;100.00;99163.53;5002147;28;20482;-78
2023/03/10 10:36:47;;;;;;;32.17;19.88;;;;;;;0.50;100.00;99155.91;5025150;28;20061;-77
2023/03/10 10:39:32;;;;;;;28.83;18.73;;;;;;;0.58;100.00;99162.06;5029643;28;20049;-78
2023/03/10 10:42:19;;;;;;;26.23;16.38;;;;;;;0.65;100.00;99171.69;5042958;28;20705;-77
2023/03/10 10:44:54;;;;;;;26.67;16.83;;;;;;;0.64;100.00;99180.31;5044958;28;20052;-79
2023/03/10 10:47:35;;;;;;;28.15;17.98;;;;;;;0.63;100.00;99183.75;5034248;28;20053;-79
2023/03/10 10:50:22;;;;;;;27.52;17.25;;;;;;;0.58;100.00;99182.81;5047529;28;23785;-79
2023/03/10 10:53:09;;;;;;;28.23;17.58;;;;;;;0.53;100.00;99176.66;4994534;28;20699;-78
2023/03/10 10:55:37;;;;;;;28.02;17.50;;;;;;;0.54;100.00;99171.50;5035314;28;20045;-78
2023/03/10 10:58:43;;;;;;;24.23;14.43;;;;;;;0.57;100.00;99181.06;5048215;28;20041;-79
2023/03/10 11:01:13;;;;;;;27.90;17.40;;;;;;;0.58;100.00;99173.28;5015863;28;20102;-79
2023/03/10 11:03:43;;;;;;;26.27;16.73;;;;;;;0.56;100.00;99168.94;5008110;28;20053;-78
2023/03/10 11:06:20;;;;;;;26.88;16.63;;;;;;;0.53;100.00;99179.25;5012011;28;20064;-79
2023/03/10 11:08:51;;;;;;;25.73;16.60;;;;;;;0.56;100.00;99158.56;4974097;28;20060;-79
2023/03/10 11:11:48;;;;;;;25.75;15.82;;;;;;;0.51;100.00;99166.28;5026129;28;20049;-79
2023/03/10 11:14:25;;;;;;;24.08;14.93;;;;;;;0.50;100.00;99174.03;5034765;28;20041;-79
2023/03/10 11:17:23;;;;;;;24.55;16.38;;;;;;;0.53;100.00;99184.44;5020347;28;20056;-79
2023/03/10 11:20:22;;;;;;;24.58;13.57;;;;;;;0.50;100.00;99180.09;5008602;28;20063;-79
2023/03/10 11:23:08;;;;;;;29.33;17.98;;;;;;;0.53;100.00;99182.75;4965010;28;20053;-79
2023/03/10 11:26:16;;;;;;;29.95;18.20;;;;;;;0.61;100.00;99185.47;5030215;28;20056;-78
2023/03/10 11:28:46;;;;;;;30.40;18.35;;;;;;;0.64;100.00;99189.81;5017731;28;20033;-77
2023/03/10 11:31:37;;;;;;;28.98;17.92;;;;;;;0.64;100.00;99185.50;5024736;28;20493;-80
2023/03/10 11:34:29;;;;;;;32.10;17.95;;;;;;;0.65;100.00;99173.41;4976142;28;20470;-79
2023/03/10 11:37:31;;;;;;;62.90;19.52;;;;;;;0.65;100.00;99160.47;5008002;28;20403;-79